Time,TemperatureF,DewpointF,PressureIn,WindDirection,WindDirectionDegrees,WindSpeedMPH,WindSpeedGustMPH,Humidity,HourlyPrecipIn,Conditions,Clouds,dailyrainin,SoftwareType,DateUTC
2013-05-10 00:00:00,58.3,55.1,30.10,SSW,211,0.0,0.0,89,0.00,RA,,0.00,WeatherDisplay:10.37,2013-05-10 04:00:00,
2013-05-10 00:15:00,57.9,55.0,30.10,SSW,211,0.0,0.0,90,0.00,CLR,,0.00,WeatherDisplay:10.37,2013-05-10 04:15:00,
2013-05-10 00:30:00,57.4,54.8,30.10,SSW,211,0.0,0.0,91,0.00,CLR,,0.00,WeatherDisplay:10.37,2013-05-10 04:30:00,
2013-05-10 00:45:00,56.9,54.3,30.11,SSW,211,0.0,0.0,91,0.00,CLR,,0.00,WeatherDisplay:10.37,2013-05-10 04:45:00,
2013-05-10 01:00:00,56.6,54.3,30.11,SSW,211,0.0,0.0,92,0.00,CLR,,0.00,WeatherDisplay:10.37,2013-05-10 05:00:00,
2013-05-10 01:15:00,56.1,53.8,30.10,SSW,211,0.0,0.0,92,0.00,CLR,,0.00,WeatherDisplay:10.37,2013-05-10 05:15:00,
2013-05-10 01:30:00,55.9,53.6,30.10,SSW,211,0.0,0.0,92,0.00,CLR,,0.00,WeatherDisplay:10.37,2013-05-10 05:30:00,
2013-05-10 01:45:00,55.7,53.7,30.09,SSW,211,0.0,0.0,93,0.00,CLR,,0.00,WeatherDisplay:10.37,2013-05-10 05:45:00,
2013-05-10 02:00:00,55.3,53.3,30.09,SSW,211,0.0,0.0,93,0.00,CLR,,0.00,WeatherDisplay:10.37,2013-05-10 06:00:00,
2013-05-10 02:15:00,55.0,53.3,30.09,SSW,211,0.0,0.0,94,0.00,CLR,,0.00,WeatherDisplay:10.37,2013-05-10 06:15:00,
2013-05-10 02:30:00,54.8,53.1,30.10,SSW,211,0.0,0.0,94,0.00,CLR,,0.00,WeatherDisplay:10.37,2013-05-10 06:30:00,
2013-05-10 02:45:00,54.5,52.5,30.10,SSW,211,0.0,0.0,93,0.00,CLR,,0.00,WeatherDisplay:10.37,2013-05-10 06:45:00,
2013-05-10 03:00:00,54.2,52.5,30.10,SSW,211,0.0,0.0,94,0.00,CLR,,0.00,WeatherDisplay:10.37,2013-05-10 07:00:00,
2013-05-10 03:15:00,54.1,52.4,30.10,SSW,211,0.0,0.0,94,0.00,CLR,,0.00,WeatherDisplay:10.37,2013-05-10 07:15:00,
2013-05-10 03:30:00,53.9,52.5,30.10,SSW,211,0.0,0.0,95,0.00,CLR,,0.00,WeatherDisplay:10.37,2013-05-10 07:30:00,
2013-05-10 03:45:00,53.6,52.2,30.09,SSW,211,0.0,0.0,95,0.00,CLR,,0.00,WeatherDisplay:10.37,2013-05-10 07:45:00,
2013-05-10 04:00:00,53.5,52.1,30.09,SSW,211,0.0,0.0,95,0.00,CLR,,0.00,WeatherDisplay:10.37,2013-05-10 08:00:00,
2013-05-10 04:15:00,53.3,51.9,30.09,SSW,211,0.0,0.0,95,0.00,CLR,,0.00,WeatherDisplay:10.37,2013-05-10 08:15:00,
2013-05-10 04:30:00,53.2,51.8,30.08,SSW,211,0.0,0.0,95,0.00,CLR,,0.00,WeatherDisplay:10.37,2013-05-10 08:30:00,
2013-05-10 04:45:00,52.9,51.5,30.08,SSW,211,0.0,0.0,95,0.00,CLR,,0.00,WeatherDisplay:10.37,2013-05-10 08:45:00,
2013-05-10 05:00:00,52.7,51.3,30.08,SSW,211,0.0,0.0,95,0.00,CLR,,0.00,WeatherDisplay:10.37,2013-05-10 09:00:00,
2013-05-10 05:15:00,52.5,51.1,30.08,SSW,211,0.0,0.0,95,0.00,CLR,,0.00,WeatherDisplay:10.37,2013-05-10 09:15:00,
2013-05-10 05:30:00,52.2,51.4,30.08,SSW,211,0.0,0.0,97,0.00,CLR,,0.00,WeatherDisplay:10.37,2013-05-10 09:30:00,
2013-05-10 05:45:00,52.0,50.9,30.08,SSW,211,0.0,0.0,96,0.00,CLR,,0.00,WeatherDisplay:10.37,2013-05-10 09:45:00,
2013-05-10 06:00:00,51.8,50.4,30.08,SSW,211,0.0,0.0,95,0.00,CLR,,0.00,WeatherDisplay:10.37,2013-05-10 10:00:00,
2013-05-10 06:15:00,51.6,50.5,30.08,SSW,211,0.0,0.0,96,0.00,CLR,,0.00,WeatherDisplay:10.37,2013-05-10 10:15:00,
2013-05-10 06:30:00,51.5,50.7,30.08,SSW,211,0.0,0.0,97,0.00,CLR,,0.00,WeatherDisplay:10.37,2013-05-10 10:30:00,
2013-05-10 06:45:00,51.5,50.7,30.09,East,84,0.0,0.0,97,0.00,CLR,,0.00,WeatherDisplay:10.37,2013-05-10 10:45:00,
2013-05-10 07:00:00,51.7,51.2,30.09,ENE,64,0.0,0.0,98,0.00,CLR,,0.00,WeatherDisplay:10.37,2013-05-10 11:00:00,
2013-05-10 07:15:00,51.9,51.1,30.10,ENE,64,0.0,0.0,97,0.00,CLR,,0.00,WeatherDisplay:10.37,2013-05-10 11:15:00,
2013-05-10 07:30:00,52.6,52.0,30.09,ENE,63,0.0,0.0,98,0.00,CLR,,0.00,WeatherDisplay:10.37,2013-05-10 11:30:00,
2013-05-10 07:45:00,53.8,53.5,30.10,West,259,0.0,1.0,99,0.00,CLR,,0.00,WeatherDisplay:10.37,2013-05-10 11:45:00,
2013-05-10 08:00:00,56.7,56.7,30.09,West,259,0.0,0.0,100,0.00,CLR,,0.00,WeatherDisplay:10.37,2013-05-10 12:00:00,
2013-05-10 08:15:00,58.9,58.7,30.09,West,259,0.0,1.0,99,0.00,CLR,,0.00,WeatherDisplay:10.37,2013-05-10 12:15:00,
2013-05-10 08:30:00,60.8,59.3,30.09,West,259,0.0,0.0,95,0.00,CLR,,0.00,WeatherDisplay:10.37,2013-05-10 12:30:00,
2013-05-10 08:45:00,62.3,59.3,30.08,West,259,0.0,0.0,90,0.00,CLR,,0.00,WeatherDisplay:10.37,2013-05-10 12:45:00,
2013-05-10 09:00:00,65.0,60.7,30.08,West,259,0.0,0.0,86,0.00,CLR,,0.00,WeatherDisplay:10.37,2013-05-10 13:00:00,
2013-05-10 09:15:00,66.4,60.7,30.08,West,259,0.0,0.0,82,0.00,CLR,,0.00,WeatherDisplay:10.37,2013-05-10 13:15:00,
2013-05-10 09:30:00,69.9,62.8,30.08,West,259,0.0,0.0,78,0.00,CLR,,0.00,WeatherDisplay:10.37,2013-05-10 13:30:00,
2013-05-10 09:45:00,71.9,63.1,30.08,West,259,0.0,0.0,74,0.00,CLR,,0.00,WeatherDisplay:10.37,2013-05-10 13:45:00,
2013-05-10 10:00:00,72.3,63.2,30.08,West,259,0.0,0.0,73,0.00,CLR,,0.00,WeatherDisplay:10.37,2013-05-10 14:00:00,
2013-05-10 10:15:00,72.1,63.3,30.08,West,259,0.0,0.0,74,0.00,CLR,,0.00,WeatherDisplay:10.37,2013-05-10 14:15:00,
2013-05-10 10:30:00,73.8,63.0,30.08,West,262,0.0,0.0,69,0.00,CLR,,0.00,WeatherDisplay:10.37,2013-05-10 14:30:00,
2013-05-10 10:45:00,74.9,62.8,30.08,West,262,0.0,0.0,66,0.00,CLR,,0.00,WeatherDisplay:10.37,2013-05-10 14:45:00,
2013-05-10 11:00:00,74.9,63.2,30.08,West,261,0.0,0.0,67,0.00,CLR,,0.00,WeatherDisplay:10.37,2013-05-10 15:00:00,
2013-05-10 11:15:00,76.4,64.6,30.07,SW,228,0.0,0.0,67,0.00,CLR,,0.00,WeatherDisplay:10.37,2013-05-10 15:15:00,
2013-05-10 11:30:00,77.7,65.4,30.07,SSW,208,0.0,0.0,66,0.00,CLR,,0.00,WeatherDisplay:10.37,2013-05-10 15:30:00,
2013-05-10 11:45:00,78.7,65.9,30.08,SW,220,0.0,0.0,65,0.00,CLR,,0.00,WeatherDisplay:10.37,2013-05-10 15:45:00,
2013-05-10 12:00:00,79.0,64.9,30.07,SW,221,2.0,12.0,62,0.00,CLR,,0.00,WeatherDisplay:10.37,2013-05-10 16:00:00,
2013-05-10 12:15:00,78.7,64.6,30.08,SSW,210,0.0,8.0,62,0.00,CLR,,0.00,WeatherDisplay:10.37,2013-05-10 16:15:00,
2013-05-10 12:30:00,79.8,65.6,30.08,SSW,192,1.0,9.0,62,0.00,CLR,,0.00,WeatherDisplay:10.37,2013-05-10 16:30:00,
2013-05-10 12:45:00,80.2,64.6,30.06,SW,225,5.0,10.0,59,0.00,CLR,,0.00,WeatherDisplay:10.37,2013-05-10 16:45:00,
2013-05-10 13:00:00,80.0,64.9,30.06,SW,234,2.0,10.0,60,0.00,CLR,,0.00,WeatherDisplay:10.37,2013-05-10 17:00:00,
2013-05-10 13:15:00,80.3,63.2,30.06,WSW,244,3.0,15.0,56,0.00,CLR,,0.00,WeatherDisplay:10.37,2013-05-10 17:15:00,
2013-05-10 13:30:00,81.1,62.9,30.05,SSW,193,6.0,10.0,54,0.00,CLR,,0.00,WeatherDisplay:10.37,2013-05-10 17:30:00,
2013-05-10 13:45:00,81.2,63.0,30.05,WSW,247,2.0,10.0,54,0.00,CLR,,0.00,WeatherDisplay:10.37,2013-05-10 17:45:00,
2013-05-10 14:00:00,81.5,61.6,30.05,SW,229,3.0,13.0,51,0.00,CLR,,0.00,WeatherDisplay:10.37,2013-05-10 18:00:00,
2013-05-10 14:15:00,81.5,61.6,30.05,WSW,245,3.0,15.0,51,0.00,CLR,,0.00,WeatherDisplay:10.37,2013-05-10 18:15:00,
2013-05-10 14:30:00,81.8,61.9,30.04,SW,234,7.0,14.0,51,0.00,FEW,,0.00,WeatherDisplay:10.37,2013-05-10 18:30:00,
2013-05-10 14:45:00,80.6,62.4,30.04,WSW,241,5.0,15.0,54,0.00,FEW,,0.00,WeatherDisplay:10.37,2013-05-10 18:45:00,
2013-05-10 15:00:00,80.4,62.2,30.04,SW,215,6.0,12.0,54,0.00,FEW,,0.00,WeatherDisplay:10.37,2013-05-10 19:00:00,
2013-05-10 15:15:00,81.4,62.6,30.03,SSW,198,3.0,15.0,53,0.00,FEW,,0.00,WeatherDisplay:10.37,2013-05-10 19:15:00,
2013-05-10 15:30:00,82.3,61.2,30.02,SW,219,3.0,13.0,49,0.00,BKN,,0.00,WeatherDisplay:10.37,2013-05-10 19:30:00,
2013-05-10 15:45:00,82.1,62.2,30.01,SSW,203,5.0,12.0,51,0.00,BKN,,0.00,WeatherDisplay:10.37,2013-05-10 19:45:00,
2013-05-10 16:00:00,82.2,62.3,30.01,SW,225,7.0,13.0,51,0.00,BKN,,0.00,WeatherDisplay:10.37,2013-05-10 20:00:00,
2013-05-10 16:15:00,82.0,62.1,30.00,SSW,202,2.0,15.0,51,0.00,BKN,,0.00,WeatherDisplay:10.37,2013-05-10 20:15:00,
2013-05-10 16:30:00,81.7,61.9,30.00,South,187,3.0,13.0,51,0.00,FEW,,0.00,WeatherDisplay:10.37,2013-05-10 20:30:00,
2013-05-10 16:45:00,81.0,61.7,30.00,SSW,200,5.0,15.0,52,0.00,FEW,,0.00,WeatherDisplay:10.37,2013-05-10 20:45:00,
2013-05-10 17:00:00,80.3,61.7,30.00,SW,220,2.0,13.0,53,0.00,FEW,,0.00,WeatherDisplay:10.37,2013-05-10 21:00:00,
2013-05-10 17:15:00,80.0,62.4,29.99,SSW,208,2.0,12.0,55,0.00,FEW,,0.00,WeatherDisplay:10.37,2013-05-10 21:15:00,
2013-05-10 17:30:00,79.5,61.4,29.99,SW,220,2.0,10.0,54,0.00,BKN,,0.00,WeatherDisplay:10.37,2013-05-10 21:30:00,
2013-05-10 17:45:00,79.1,62.1,29.99,SSW,207,1.0,7.0,56,0.00,BKN,,0.00,WeatherDisplay:10.37,2013-05-10 21:45:00,
2013-05-10 18:00:00,78.8,62.3,29.99,SW,220,0.0,5.0,57,0.00,BKN,,0.00,WeatherDisplay:10.37,2013-05-10 22:00:00,
2013-05-10 18:15:00,78.4,61.9,29.99,SW,231,2.0,8.0,57,0.00,BKN,,0.00,WeatherDisplay:10.37,2013-05-10 22:15:00,
2013-05-10 18:30:00,78.1,62.1,29.99,SSW,199,1.0,9.0,58,0.00,FEW,,0.00,WeatherDisplay:10.37,2013-05-10 22:30:00,
2013-05-10 18:45:00,77.6,62.1,29.99,SSW,199,1.0,4.0,59,0.00,FEW,,0.00,WeatherDisplay:10.37,2013-05-10 22:45:00,
2013-05-10 19:00:00,76.9,62.0,29.99,SSW,194,2.0,6.0,60,0.00,FEW,,0.00,WeatherDisplay:10.37,2013-05-10 23:00:00,
2013-05-10 19:15:00,76.2,61.3,29.98,South,189,0.0,3.0,60,0.00,FEW,,0.00,WeatherDisplay:10.37,2013-05-10 23:15:00,
2013-05-10 19:30:00,75.7,61.8,29.98,South,189,0.0,3.0,62,0.00,CLR,,0.00,WeatherDisplay:10.37,2013-05-10 23:30:00,
2013-05-10 19:45:00,74.9,61.9,29.99,South,189,0.0,3.0,64,0.00,CLR,,0.00,WeatherDisplay:10.37,2013-05-10 23:45:00,
2013-05-10 20:00:00,74.0,61.5,29.99,South,189,0.0,2.0,65,0.00,CLR,,0.00,WeatherDisplay:10.37,2013-05-11 00:00:00,
2013-05-10 20:15:00,73.3,60.9,29.99,South,189,0.0,3.0,65,0.00,CLR,,0.00,WeatherDisplay:10.37,2013-05-11 00:15:00,
2013-05-10 20:30:00,72.7,60.3,29.99,South,189,0.0,2.0,65,0.00,CLR,,0.00,WeatherDisplay:10.37,2013-05-11 00:30:00,
2013-05-10 20:45:00,72.0,60.4,29.99,South,189,0.0,1.0,67,0.00,CLR,,0.00,WeatherDisplay:10.37,2013-05-11 00:45:00,
2013-05-10 21:00:00,71.3,59.8,30.00,South,189,0.0,1.0,67,0.00,CLR,,0.00,WeatherDisplay:10.37,2013-05-11 01:00:00,
2013-05-10 21:15:00,70.9,59.4,30.00,South,189,0.0,0.0,67,0.00,CLR,,0.00,WeatherDisplay:10.37,2013-05-11 01:15:00,
2013-05-10 21:30:00,70.7,59.2,30.00,South,189,0.0,3.0,67,0.00,CLR,,0.00,WeatherDisplay:10.37,2013-05-11 01:30:00,
2013-05-10 21:45:00,70.6,59.1,30.00,SSW,196,0.0,2.0,67,0.00,CLR,,0.00,WeatherDisplay:10.37,2013-05-11 01:45:00,
2013-05-10 22:00:00,70.6,58.7,30.00,SSW,196,0.0,4.0,66,0.00,CLR,,0.00,WeatherDisplay:10.37,2013-05-11 02:00:00,
2013-05-10 22:15:00,70.8,59.3,30.00,SSW,196,0.0,2.0,67,0.00,CLR,,0.00,WeatherDisplay:10.37,2013-05-11 02:15:00,
2013-05-10 22:30:00,70.7,59.2,30.01,SSW,196,0.0,3.0,67,0.00,BKN,,0.00,WeatherDisplay:10.37,2013-05-11 02:30:00,
2013-05-10 22:45:00,70.3,59.6,30.00,SSW,196,0.0,0.0,69,0.00,BKN,,0.00,WeatherDisplay:10.37,2013-05-11 02:45:00,
2013-05-10 23:00:00,69.3,59.9,29.98,SSW,195,0.0,1.0,72,0.00,BKN,,0.00,WeatherDisplay:10.37,2013-05-11 03:00:00,
2013-05-10 23:15:00,68.7,59.3,29.98,SSW,195,0.0,1.0,72,0.00,BKN,,0.00,WeatherDisplay:10.37,2013-05-11 03:15:00,
2013-05-10 23:30:00,68.2,59.2,29.99,SSW,195,0.0,1.0,73,0.00,OVC,,0.00,WeatherDisplay:10.37,2013-05-11 03:30:00,
2013-05-10 23:45:00,68.0,58.7,29.99,SSW,195,0.0,1.0,72,0.00,OVC,,0.00,WeatherDisplay:10.37,2013-05-11 03:45:00,